Time;durP1;ratioP1;P1;durP2;ratioP2;P2;SDS_P1;SDS_P2;PMS_P1;PMS_P2;Temp;Humidity;BMP_temperature;BMP_pressure;BME280_temperature;BME280_humidity;BME280_pressure;Samples;Min_cycle;Max_cycle;Signal;HPM_P1;HPM_P2
2023/12/28 00:03:26;;;;;;;73.97;70.20;;;8.50;99.90;;;;;;12333353;28;20047;-36
2023/12/28 00:09:28;;;;;;;73.75;70.15;;;8.30;99.90;;;;;;12334883;28;20047;-34
2023/12/28 00:15:30;;;;;;;58.55;55.55;;;8.30;99.90;;;;;;12339144;28;20062;-35
2023/12/28 00:21:32;;;;;;;51.60;49.05;;;8.20;99.90;;;;;;12330222;28;20047;-34
2023/12/28 00:27:35;;;;;;;43.90;41.70;;;8.00;99.90;;;;;;12327473;28;20070;-35
2023/12/28 00:33:37;;;;;;;49.13;46.63;;;7.80;99.90;;;;;;12319796;28;20043;-36
2023/12/28 00:39:40;;;;;;;52.42;49.72;;;7.80;99.90;;;;;;12326079;28;20047;-35
2023/12/28 00:45:42;;;;;;;70.22;66.53;;;7.70;99.90;;;;;;12311971;28;20047;-36
2023/12/28 00:51:44;;;;;;;79.47;74.47;;;7.60;99.90;;;;;;12324356;28;20495;-35
2023/12/28 00:57:46;;;;;;;79.28;74.28;;;7.60;99.90;;;;;;12324868;28;20070;-35
2023/12/28 01:03:48;;;;;;;83.18;77.97;;;7.60;99.90;;;;;;12324146;28;20561;-36
2023/12/28 01:09:50;;;;;;;81.97;76.78;;;7.70;99.90;;;;;;12330503;28;20055;-36
2023/12/28 01:15:52;;;;;;;89.85;84.15;;;7.80;99.90;;;;;;12335841;28;20200;-35
2023/12/28 01:21:54;;;;;;;87.50;81.82;;;7.80;99.90;;;;;;12366674;28;20042;-35
2023/12/28 01:27:56;;;;;;;89.03;83.47;;;7.90;99.90;;;;;;12317576;28;20043;-35
2023/12/28 01:33:58;;;;;;;86.13;80.72;;;7.90;99.90;;;;;;12343213;28;20145;-34
2023/12/28 01:40:01;;;;;;;85.30;79.88;;;8.00;99.90;;;;;;12322137;28;20475;-35
2023/12/28 01:46:05;;;;;;;84.18;78.80;;;8.00;99.90;;;;;;12319167;28;20043;-35
2023/12/28 01:52:07;;;;;;;88.40;82.90;;;8.10;99.90;;;;;;12362993;28;20183;-36
2023/12/28 01:58:09;;;;;;;86.35;80.60;;;8.20;99.90;;;;;;12328076;28;20087;-36
2023/12/28 02:04:11;;;;;;;91.72;85.72;;;8.30;99.90;;;;;;12327455;28;20054;-34
2023/12/28 02:10:13;;;;;;;97.90;91.55;;;8.40;99.90;;;;;;12342966;28;20402;-35
2023/12/28 02:16:36;;;;;;;99.68;93.22;;;8.30;99.90;;;;;;12351348;28;20054;-35
2023/12/28 02:22:40;;;;;;;104.68;97.97;;;8.40;99.90;;;;;;12305369;28;20462;-35
2023/12/28 02:28:42;;;;;;;105.95;98.93;;;8.50;99.90;;;;;;12350298;28;20065;-36
2023/12/28 02:34:47;;;;;;;110.72;103.22;;;8.50;99.90;;;;;;12333446;28;20043;-34
2023/12/28 02:40:50;;;;;;;108.78;101.75;;;8.50;99.90;;;;;;12310660;28;20051;-35
2023/12/28 02:46:52;;;;;;;115.15;107.80;;;8.50;99.90;;;;;;12336006;28;20047;-35
2023/12/28 02:52:53;;;;;;;113.93;106.43;;;8.60;99.90;;;;;;12326131;28;20047;-35
2023/12/28 02:58:55;;;;;;;113.38;105.82;;;8.70;99.90;;;;;;12313011;28;20085;-36
2023/12/28 03:04:57;;;;;;;113.90;106.43;;;8.70;99.90;;;;;;12328033;28;20521;-36
2023/12/28 03:10:59;;;;;;;114.38;106.80;;;8.70;99.90;;;;;;12322164;28;20046;-35
2023/12/28 03:17:01;;;;;;;113.68;106.10;;;8.80;99.90;;;;;;12332301;28;20485;-35
2023/12/28 03:23:03;;;;;;;113.20;105.68;;;8.60;99.90;;;;;;12325450;28;20059;-35
2023/12/28 03:29:08;;;;;;;110.13;102.82;;;8.60;99.90;;;;;;12337050;28;20058;-35
2023/12/28 03:35:10;;;;;;;107.30;100.22;;;8.60;99.90;;;;;;12332816;28;20097;-36
2023/12/28 03:41:18;;;;;;;109.35;102.05;;;8.60;99.90;;;;;;12336771;28;20422;-36
2023/12/28 03:47:20;;;;;;;106.57;99.28;;;8.50;99.90;;;;;;12330188;28;20161;-35
2023/12/28 03:53:22;;;;;;;106.50;99.30;;;8.50;99.90;;;;;;12334057;28;20058;-36
2023/12/28 03:59:24;;;;;;;104.22;97.18;;;8.60;99.90;;;;;;12328454;28;20043;-35
2023/12/28 04:05:26;;;;;;;100.97;94.00;;;8.60;99.90;;;;;;12336765;28;20051;-35
2023/12/28 04:11:28;;;;;;;104.80;97.72;;;8.60;99.90;;;;;;12326279;28;20627;-35
2023/12/28 04:17:30;;;;;;;99.88;93.18;;;8.60;99.90;;;;;;12319980;28;20051;-36
2023/12/28 04:23:31;;;;;;;102.80;95.95;;;8.60;99.90;;;;;;12334730;28;20054;-35
2023/12/28 04:29:35;;;;;;;100.03;93.22;;;8.60;99.90;;;;;;12330906;28;20415;-35
2023/12/28 04:35:37;;;;;;;98.60;91.93;;;8.60;99.90;;;;;;12344066;28;20047;-35
2023/12/28 04:41:39;;;;;;;100.97;93.88;;;8.60;99.90;;;;;;12330969;28;20539;-35
2023/12/28 04:47:41;;;;;;;98.93;92.03;;;8.60;99.90;;;;;;12337932;28;20399;-35
2023/12/28 04:53:43;;;;;;;103.78;96.53;;;8.70;99.90;;;;;;12338355;28;20515;-36
2023/12/28 04:59:45;;;;;;;96.80;90.00;;;8.60;99.90;;;;;;12326133;28;20134;-34
2023/12/28 05:05:46;;;;;;;98.72;91.55;;;8.70;99.90;;;;;;12335995;28;20077;-36
2023/12/28 05:11:48;;;;;;;97.38;90.22;;;8.60;99.90;;;;;;12324233;28;20193;-35
2023/12/28 05:17:50;;;;;;;96.45;89.47;;;8.70;99.90;;;;;;12333334;28;20072;-35
2023/12/28 05:23:52;;;;;;;97.57;90.60;;;8.70;99.90;;;;;;12322266;28;20058;-35
2023/12/28 05:29:54;;;;;;;97.10;90.10;;;8.70;99.90;;;;;;12352215;28;20057;-35
2023/12/28 05:35:57;;;;;;;98.90;91.60;;;8.80;99.90;;;;;;12330256;28;20313;-35
2023/12/28 05:41:59;;;;;;;103.25;95.40;;;8.80;99.90;;;;;;12337233;28;20142;-35
2023/12/28 05:48:01;;;;;;;101.00;93.47;;;8.80;99.90;;;;;;12337926;28;20050;-35
2023/12/28 05:54:04;;;;;;;101.78;94.47;;;8.80;99.90;;;;;;12329523;28;20067;-35
2023/12/28 06:00:13;;;;;;;100.70;93.20;;;8.80;99.90;;;;;;12325222;28;20118;-36
2023/12/28 06:06:16;;;;;;;101.03;93.43;;;8.90;99.90;;;;;;12343365;28;20099;-35
2023/12/28 06:12:18;;;;;;;103.30;95.40;;;8.90;99.90;;;;;;12335232;28;20055;-36
2023/12/28 06:18:21;;;;;;;99.55;91.95;;;8.80;99.90;;;;;;12330851;28;20427;-35
2023/12/28 06:24:24;;;;;;;96.97;89.63;;;8.80;99.90;;;;;;12326261;28;20161;-36
2023/12/28 06:30:26;;;;;;;94.88;87.68;;;8.80;99.90;;;;;;12322680;28;20050;-35
2023/12/28 06:36:28;;;;;;;96.55;89.35;;;8.80;99.90;;;;;;12339911;28;20054;-35
2023/12/28 06:42:30;;;;;;;100.47;92.68;;;8.90;99.90;;;;;;12336424;28;20047;-35
2023/12/28 06:48:32;;;;;;;99.15;91.68;;;8.90;99.90;;;;;;12329810;28;20479;-35
2023/12/28 06:54:34;;;;;;;94.10;86.97;;;8.90;99.90;;;;;;12311301;28;20056;-35
2023/12/28 07:00:36;;;;;;;89.35;82.13;;;8.90;99.90;;;;;;12334946;28;20059;-35
2023/12/28 07:06:38;;;;;;;88.55;81.45;;;9.00;99.90;;;;;;12327559;28;20150;-35
2023/12/28 07:12:40;;;;;;;93.00;85.80;;;8.90;99.90;;;;;;12334439;28;20082;-34
2023/12/28 07:18:42;;;;;;;93.50;86.22;;;9.00;99.90;;;;;;12343829;28;20086;-36
2023/12/28 07:24:44;;;;;;;91.93;84.63;;;8.90;99.90;;;;;;12316080;28;20084;-35
2023/12/28 07:30:46;;;;;;;90.43;83.22;;;8.90;99.90;;;;;;12345473;28;20047;-35
2023/12/28 07:36:48;;;;;;;93.13;85.88;;;8.90;99.90;;;;;;12325478;28;20051;-35
2023/12/28 07:42:50;;;;;;;89.45;82.10;;;9.00;99.90;;;;;;12338149;28;20150;-35
2023/12/28 07:48:52;;;;;;;94.05;86.65;;;9.00;99.90;;;;;;12333299;28;20158;-35
2023/12/28 07:54:54;;;;;;;92.30;84.60;;;9.00;99.90;;;;;;12331585;28;20195;-35
2023/12/28 08:00:56;;;;;;;102.50;95.00;;;9.00;99.90;;;;;;12339252;28;20047;-35
2023/12/28 08:06:58;;;;;;;97.72;90.40;;;9.00;99.90;;;;;;12347461;28;20046;-35
2023/12/28 08:13:00;;;;;;;101.80;94.43;;;9.10;99.90;;;;;;12331986;28;20129;-35
2023/12/28 08:19:03;;;;;;;102.10;94.60;;;9.10;99.90;;;;;;12340222;28;20515;-36
2023/12/28 08:25:05;;;;;;;103.57;96.30;;;9.10;99.90;;;;;;12334222;28;20057;-35
2023/12/28 08:31:08;;;;;;;103.93;96.40;;;9.10;99.90;;;;;;12331124;28;20157;-35
2023/12/28 08:37:10;;;;;;;101.60;94.30;;;9.00;99.90;;;;;;12338382;28;20055;-35
2023/12/28 08:43:12;;;;;;;98.20;90.95;;;9.00;99.90;;;;;;12316025;28;20055;-35
2023/12/28 08:49:15;;;;;;;97.05;89.65;;;9.10;99.90;;;;;;12327347;28;20061;-36
2023/12/28 08:55:18;;;;;;;97.10;89.60;;;9.10;99.90;;;;;;12339394;28;20107;-35
2023/12/28 09:01:29;;;;;;;98.65;91.35;;;9.10;99.90;;;;;;12331229;28;20522;-35
2023/12/28 09:07:31;;;;;;;99.63;92.43;;;9.20;99.90;;;;;;12352576;28;20099;-35
2023/12/28 09:13:33;;;;;;;99.50;92.47;;;9.20;99.90;;;;;;12323675;28;20054;-35
2023/12/28 09:19:35;;;;;;;104.60;96.80;;;9.20;99.90;;;;;;12325523;28;20047;-35
2023/12/28 09:25:38;;;;;;;101.97;94.80;;;9.20;99.90;;;;;;12336198;28;20054;-36
2023/12/28 09:31:40;;;;;;;101.45;94.18;;;9.20;99.90;;;;;;12327362;28;20062;-35
2023/12/28 09:37:42;;;;;;;102.20;94.70;;;9.20;99.90;;;;;;12313766;28;20043;-35
2023/12/28 09:44:24;;;;;;;104.88;96.95;;;9.30;99.90;;;;;;12325413;28;20050;-35
2023/12/28 09:50:26;;;;;;;104.05;96.88;;;9.30;99.90;;;;;;12309817;28;20095;-35
2023/12/28 09:56:28;;;;;;;102.97;95.50;;;9.40;99.90;;;;;;12318476;28;20089;-35
2023/12/28 10:02:33;;;;;;;108.95;101.28;;;9.40;99.90;;;;;;12317340;28;20053;-35
2023/12/28 10:08:48;;;;;;;105.72;97.85;;;9.30;99.90;;;;;;12318028;28;20439;-35
2023/12/28 10:14:50;;;;;;;107.75;100.35;;;9.40;99.90;;;;;;12306085;28;20142;-35
2023/12/28 10:20:54;;;;;;;107.63;100.13;;;9.60;99.90;;;;;;12326387;28;20299;-35
2023/12/28 10:26:56;;;;;;;108.60;101.47;;;9.60;99.90;;;;;;12332922;28;20043;-35
2023/12/28 10:32:57;;;;;;;109.72;102.20;;;9.60;99.90;;;;;;12321366;28;20075;-36
2023/12/28 10:39:01;;;;;;;103.63;96.53;;;9.60;99.90;;;;;;12317656;28;20051;-36
2023/12/28 10:45:08;;;;;;;106.15;99.07;;;9.70;99.90;;;;;;12318149;28;20099;-35
2023/12/28 10:51:12;;;;;;;111.50;104.00;;;9.70;99.90;;;;;;12327218;28;20065;-35
2023/12/28 10:57:32;;;;;;;107.05;99.75;;;9.70;99.90;;;;;;12330587;28;20097;-35
2023/12/28 11:03:36;;;;;;;109.60;102.47;;;9.70;99.90;;;;;;12333813;28;20123;-36
2023/12/28 11:09:42;;;;;;;113.13;105.53;;;9.80;99.90;;;;;;12339719;28;20144;-34
2023/12/28 11:15:46;;;;;;;111.32;103.93;;;9.80;99.90;;;;;;12332026;28;20092;-36
2023/12/28 11:21:50;;;;;;;105.72;98.93;;;9.70;99.90;;;;;;12313801;28;20391;-35
2023/12/28 11:27:52;;;;;;;109.37;102.23;;;9.80;99.90;;;;;;12335462;28;20140;-35
2023/12/28 11:33:55;;;;;;;107.85;100.68;;;9.90;99.90;;;;;;12349213;28;20100;-36
2023/12/28 11:39:57;;;;;;;109.03;101.82;;;9.90;99.90;;;;;;12341371;28;20040;-35
2023/12/28 11:46:00;;;;;;;108.82;101.53;;;10.10;99.90;;;;;;12328392;28;20125;-36
2023/12/28 11:52:10;;;;;;;115.88;108.47;;;10.20;99.90;;;;;;12339497;28;20043;-36
2023/12/28 11:58:13;;;;;;;121.18;113.60;;;10.30;99.90;;;;;;12331574;28;20185;-36
2023/12/28 12:04:17;;;;;;;120.60;113.10;;;10.20;99.90;;;;;;12328981;28;20478;-34
2023/12/28 12:10:19;;;;;;;117.60;110.20;;;10.20;99.90;;;;;;12325680;28;20051;-34
2023/12/28 12:16:21;;;;;;;118.60;111.60;;;10.30;99.90;;;;;;12336435;28;20090;-34
2023/12/28 12:22:25;;;;;;;119.28;112.07;;;10.30;99.90;;;;;;12329644;28;20050;-33
2023/12/28 12:28:30;;;;;;;122.43;115.20;;;10.30;99.90;;;;;;12334014;28;20057;-34
2023/12/28 12:34:32;;;;;;;119.53;112.63;;;10.30;99.90;;;;;;12345206;28;20057;-34
2023/12/28 12:40:35;;;;;;;123.22;116.25;;;10.20;99.90;;;;;;12382541;22;20498;-87
2023/12/28 12:46:38;;;;;;;122.22;115.30;;;10.30;99.90;;;;;;12373368;28;20054;-85
2023/12/28 12:52:41;;;;;;;120.93;114.18;;;10.30;99.90;;;;;;12378594;28;20058;-87
2023/12/28 12:58:45;;;;;;;119.87;112.93;;;10.30;99.90;;;;;;12362668;28;20150;-87
2023/12/28 13:04:47;;;;;;;122.07;115.20;;;10.40;99.90;;;;;;12342521;28;20047;-86
2023/12/28 13:10:52;;;;;;;119.38;112.70;;;10.30;99.90;;;;;;12341538;28;20047;-89
2023/12/28 13:16:54;;;;;;;120.00;113.35;;;10.30;99.90;;;;;;12346138;28;20054;-86
2023/12/28 13:22:59;;;;;;;118.18;111.82;;;10.30;99.90;;;;;;12340022;28;20486;-88
2023/12/28 13:29:03;;;;;;;116.70;110.47;;;10.30;99.90;;;;;;12349710;28;20450;-84
2023/12/28 13:35:07;;;;;;;104.23;98.73;;;10.30;99.90;;;;;;12336446;28;20082;-86
2023/12/28 13:41:09;;;;;;;116.10;110.03;;;10.30;99.90;;;;;;12331468;28;20368;-85
2023/12/28 13:47:14;;;;;;;111.85;106.25;;;10.40;99.90;;;;;;12336604;28;20051;-87
2023/12/28 13:53:17;;;;;;;109.85;103.95;;;10.30;99.90;;;;;;12318023;28;20062;-88
2023/12/28 13:59:20;;;;;;;111.88;106.10;;;10.30;99.90;;;;;;12349895;28;20055;-89
2023/12/28 14:05:23;;;;;;;107.75;101.75;;;10.40;99.90;;;;;;12340581;28;20078;-87
2023/12/28 14:11:25;;;;;;;107.80;102.07;;;10.30;99.90;;;;;;12332547;28;20058;-84
2023/12/28 14:17:27;;;;;;;99.05;93.78;;;10.30;99.90;;;;;;12336145;28;20058;-85
2023/12/28 14:23:30;;;;;;;100.55;95.18;;;10.40;99.90;;;;;;12339099;28;20050;-88
2023/12/28 14:29:32;;;;;;;104.05;98.43;;;10.40;99.90;;;;;;12331374;28;20488;-88
2023/12/28 14:35:35;;;;;;;100.32;95.13;;;10.30;99.90;;;;;;12336909;28;20062;-86
2023/12/28 14:41:37;;;;;;;103.38;98.13;;;10.30;99.90;;;;;;12338917;28;20073;-86
2023/12/28 14:47:45;;;;;;;104.07;98.75;;;10.30;99.90;;;;;;12340213;28;20054;-86
2023/12/28 14:53:50;;;;;;;95.80;91.10;;;10.20;99.90;;;;;;12326656;28;20069;-88
2023/12/28 14:59:53;;;;;;;;;;;10.30;99.90;;;;;;12338995;28;20063;-87
2023/12/28 15:05:55;;;;;;;101.00;95.70;;;10.30;99.90;;;;;;12359962;28;19926;-86
2023/12/28 15:12:00;;;;;;;94.40;89.40;;;10.20;99.90;;;;;;12328404;28;20051;-85
2023/12/28 15:18:03;;;;;;;90.75;86.00;;;10.30;99.90;;;;;;12347940;28;20685;-87
2023/12/28 15:24:06;;;;;;;90.20;85.18;;;10.20;99.90;;;;;;12332773;28;20054;-87
2023/12/28 15:30:09;;;;;;;83.70;79.50;;;10.20;99.90;;;;;;12339770;28;20062;-88
2023/12/28 15:36:11;;;;;;;83.70;79.35;;;10.20;99.90;;;;;;12333569;28;20055;-86
2023/12/28 15:42:14;;;;;;;80.97;76.93;;;10.20;99.90;;;;;;12333977;28;20058;-87
2023/12/28 15:48:16;;;;;;;80.03;75.93;;;10.10;99.90;;;;;;12336661;28;20050;-88
2023/12/28 15:54:18;;;;;;;77.75;73.78;;;10.20;99.90;;;;;;12360138;28;20064;-86
2023/12/28 16:00:20;;;;;;;76.78;72.65;;;10.10;99.90;;;;;;12331925;28;20074;-85
2023/12/28 16:06:22;;;;;;;74.15;70.35;;;10.10;99.90;;;;;;12345771;28;20050;-86
2023/12/28 16:12:24;;;;;;;76.65;72.22;;;10.10;99.90;;;;;;12330334;28;20054;-85
2023/12/28 16:18:28;;;;;;;76.85;72.72;;;10.10;99.90;;;;;;12353563;28;20059;-88
2023/12/28 16:24:30;;;;;;;70.33;66.70;;;10.00;99.90;;;;;;12340636;28;20046;-84
2023/12/28 16:30:32;;;;;;;75.68;71.68;;;10.00;99.90;;;;;;12343276;28;20312;-85
2023/12/28 16:36:34;;;;;;;73.75;69.88;;;10.00;99.90;;;;;;12340398;28;20419;-86
2023/12/28 16:42:36;;;;;;;75.75;71.75;;;9.90;99.90;;;;;;12325771;28;20058;-86
2023/12/28 16:48:39;;;;;;;72.43;68.70;;;9.90;99.90;;;;;;12320136;28;20042;-85
2023/12/28 16:54:42;;;;;;;72.70;68.97;;;9.90;99.90;;;;;;12327887;28;20138;-84
2023/12/28 17:00:43;;;;;;;71.57;67.97;;;9.90;99.90;;;;;;12347825;28;20055;-86
2023/12/28 17:06:46;;;;;;;69.93;66.43;;;9.90;99.90;;;;;;12338269;28;20089;-84
2023/12/28 17:12:48;;;;;;;66.55;63.13;;;9.90;99.90;;;;;;12353063;28;20055;-85
2023/12/28 17:18:51;;;;;;;68.32;64.63;;;9.80;99.90;;;;;;12336861;28;20058;-86
2023/12/28 17:25:07;;;;;;;67.78;63.83;;;9.80;99.90;;;;;;12340620;28;20058;-84
2023/12/28 17:31:13;;;;;;;67.32;63.63;;;9.80;99.90;;;;;;12360168;28;20103;-84
2023/12/28 17:37:16;;;;;;;63.75;60.45;;;9.80;99.90;;;;;;12343720;28;20074;-83
2023/12/28 17:43:46;;;;;;;69.25;65.65;;;9.80;99.90;;;;;;12339293;28;20053;-86
2023/12/28 17:49:48;;;;;;;68.00;64.40;;;9.70;99.90;;;;;;12319682;28;20054;-85
2023/12/28 17:55:50;;;;;;;70.53;67.03;;;9.80;99.90;;;;;;12324185;28;20086;-84
2023/12/28 18:01:52;;;;;;;67.40;63.70;;;9.70;99.90;;;;;;12319066;28;20398;-87
2023/12/28 18:07:55;;;;;;;74.15;70.53;;;9.70;99.90;;;;;;12323554;28;20039;-87
2023/12/28 18:13:57;;;;;;;69.65;66.20;;;9.80;99.90;;;;;;12352382;28;20058;-86
2023/12/28 18:19:59;;;;;;;72.57;68.88;;;9.80;99.90;;;;;;12330413;28;20077;-88
2023/12/28 18:26:01;;;;;;;73.28;69.47;;;9.80;99.90;;;;;;12322838;28;20078;-87
2023/12/28 18:32:03;;;;;;;74.78;71.00;;;9.80;99.90;;;;;;12356877;28;20480;-87
2023/12/28 18:38:05;;;;;;;81.28;77.13;;;9.80;99.90;;;;;;12321021;28;20126;-88
2023/12/28 18:44:07;;;;;;;82.20;78.07;;;9.60;99.90;;;;;;12327306;28;20051;-85
2023/12/28 18:50:09;;;;;;;80.95;76.85;;;9.60;99.90;;;;;;12339522;28;20054;-84
2023/12/28 18:56:11;;;;;;;80.88;76.53;;;9.60;99.90;;;;;;12307323;28;20125;-87
2023/12/28 19:02:13;;;;;;;81.05;76.75;;;9.60;99.90;;;;;;12316328;28;20518;-87
2023/12/28 19:08:15;;;;;;;79.20;75.13;;;9.50;99.90;;;;;;12312950;28;20047;-83
2023/12/28 19:14:17;;;;;;;75.50;71.68;;;9.50;99.90;;;;;;12342364;28;20051;-86
2023/12/28 19:20:19;;;;;;;82.68;78.47;;;9.60;99.90;;;;;;12346624;28;20084;-85
2023/12/28 19:26:21;;;;;;;87.55;83.05;;;9.60;99.90;;;;;;12358125;28;20048;-85
2023/12/28 19:32:24;;;;;;;86.70;82.55;;;9.70;99.90;;;;;;12331180;28;20051;-87
2023/12/28 19:38:25;;;;;;;87.72;83.32;;;9.60;99.90;;;;;;12341196;28;20375;-84
2023/12/28 19:44:27;;;;;;;91.22;86.75;;;9.60;99.90;;;;;;12332552;28;20051;-88
2023/12/28 19:50:29;;;;;;;88.60;84.15;;;9.60;99.90;;;;;;12346770;28;20047;-84
2023/12/28 19:56:31;;;;;;;94.00;89.40;;;9.70;99.90;;;;;;12320713;28;20058;-85
2023/12/28 20:02:34;;;;;;;94.47;89.78;;;9.70;99.90;;;;;;12322969;28;20108;-86
2023/12/28 20:08:36;;;;;;;84.82;80.40;;;9.70;99.90;;;;;;12336760;28;20059;-84
2023/12/28 20:14:42;;;;;;;96.00;91.30;;;9.80;99.90;;;;;;12336607;28;20061;-89
2023/12/28 20:20:44;;;;;;;93.70;88.78;;;9.80;99.90;;;;;;12330882;28;20055;-84
2023/12/28 20:26:46;;;;;;;95.15;90.38;;;9.80;99.90;;;;;;12332219;28;20477;-86
2023/12/28 20:32:48;;;;;;;100.05;95.22;;;9.80;99.90;;;;;;12335687;28;20061;-88
2023/12/28 20:38:50;;;;;;;97.22;92.55;;;9.70;99.90;;;;;;12330428;28;20066;-87
2023/12/28 20:44:52;;;;;;;95.90;90.90;;;9.70;99.90;;;;;;12333983;28;20043;-86
2023/12/28 20:50:54;;;;;;;99.55;94.72;;;9.70;99.90;;;;;;12335868;28;20059;-83
2023/12/28 20:56:56;;;;;;;103.57;98.35;;;9.60;99.90;;;;;;12325872;28;20397;-84
2023/12/28 21:02:58;;;;;;;100.78;95.75;;;9.60;99.90;;;;;;12324432;28;20478;-85
2023/12/28 21:09:00;;;;;;;100.95;95.97;;;9.60;99.90;;;;;;12322170;28;20051;-86
2023/12/28 21:15:06;;;;;;;99.93;95.13;;;9.50;99.90;;;;;;12330136;28;20055;-85
2023/12/28 21:21:08;;;;;;;99.43;94.53;;;9.60;99.90;;;;;;12316476;28;20055;-85
2023/12/28 21:27:14;;;;;;;106.60;101.38;;;9.50;99.90;;;;;;12341332;28;20074;-85
2023/12/28 21:33:16;;;;;;;104.38;99.28;;;9.50;99.90;;;;;;12330224;28;20055;-87
2023/12/28 21:39:18;;;;;;;105.55;100.20;;;9.60;99.90;;;;;;12319863;28;20051;-84
2023/12/28 21:45:20;;;;;;;104.82;99.63;;;9.60;99.90;;;;;;12332037;28;20078;-86
2023/12/28 21:51:22;;;;;;;109.20;103.40;;;9.60;99.90;;;;;;12305781;28;20046;-84
2023/12/28 21:57:24;;;;;;;110.35;104.75;;;9.60;99.90;;;;;;12327736;28;20505;-85
2023/12/28 22:03:26;;;;;;;108.18;102.75;;;9.60;99.90;;;;;;12330354;28;20161;-88
2023/12/28 22:09:28;;;;;;;109.22;103.82;;;9.70;99.90;;;;;;12324311;28;20047;-85
2023/12/28 22:15:30;;;;;;;111.07;105.55;;;9.60;99.90;;;;;;12332952;28;20054;-85
2023/12/28 22:21:32;;;;;;;111.93;106.40;;;9.60;99.90;;;;;;12344678;28;20089;-87
2023/12/28 22:27:34;;;;;;;112.65;107.15;;;9.60;99.90;;;;;;12334236;28;20042;-84
2023/12/28 22:33:36;;;;;;;113.55;107.95;;;9.60;99.90;;;;;;12332260;28;20055;-84
2023/12/28 22:39:39;;;;;;;114.65;109.00;;;9.60;99.90;;;;;;12325790;28;20091;-85
2023/12/28 22:45:41;;;;;;;116.68;110.57;;;9.60;99.90;;;;;;12323684;28;20096;-85
2023/12/28 22:51:44;;;;;;;117.60;111.43;;;9.60;99.90;;;;;;12318299;28;20051;-86
2023/12/28 22:57:46;;;;;;;122.20;115.97;;;9.60;99.90;;;;;;12332347;28;20055;-86
2023/12/28 23:03:48;;;;;;;121.13;114.97;;;9.50;99.90;;;;;;12346506;28;20141;-84
2023/12/28 23:09:50;;;;;;;117.55;111.70;;;9.50;99.90;;;;;;12331967;28;20055;-85
2023/12/28 23:15:52;;;;;;;118.25;112.07;;;9.60;99.90;;;;;;12336204;28;20061;-84
2023/12/28 23:21:54;;;;;;;124.88;118.57;;;9.50;99.90;;;;;;12331637;28;20069;-87
2023/12/28 23:27:56;;;;;;;122.35;116.25;;;9.50;99.90;;;;;;12331545;28;20483;-86
2023/12/28 23:33:58;;;;;;;124.72;118.50;;;9.50;99.90;;;;;;12329062;28;20051;-87
2023/12/28 23:40:01;;;;;;;122.03;116.03;;;9.50;99.90;;;;;;12340658;28;20051;-86
2023/12/28 23:46:03;;;;;;;126.15;119.78;;;9.50;99.90;;;;;;12327205;28;20096;-85
2023/12/28 23:52:05;;;;;;;128.00;121.57;;;9.60;99.90;;;;;;12346208;28;20078;-84
2023/12/28 23:58:07;;;;;;;127.97;121.28;;;9.60;99.90;;;;;;12329721;28;20506;-87
